sensor_id;sensor_type;location;lat;lon;timestamp;P1;durP1;ratioP1;P2;durP2;ratioP2
71148;SDS011;59072;42.144;25.200;2022-07-29T00:01:49;4.75;;;3.28;;
71148;SDS011;59072;42.144;25.200;2022-07-29T00:04:14;5.97;;;3.05;;
71148;SDS011;59072;42.144;25.200;2022-07-29T00:06:40;6.18;;;3.20;;
71148;SDS011;59072;42.144;25.200;2022-07-29T00:09:06;4.82;;;3.20;;
71148;SDS011;59072;42.144;25.200;2022-07-29T00:11:32;6.07;;;2.60;;
71148;SDS011;59072;42.144;25.200;2022-07-29T00:13:57;9.05;;;3.38;;
71148;SDS011;59072;42.144;25.200;2022-07-29T00:16:23;7.18;;;3.10;;
71148;SDS011;59072;42.144;25.200;2022-07-29T00:18:48;4.90;;;2.90;;
71148;SDS011;59072;42.144;25.200;2022-07-29T00:21:14;6.50;;;3.63;;
71148;SDS011;59072;42.144;25.200;2022-07-29T00:23:39;4.53;;;3.00;;
71148;SDS011;59072;42.144;25.200;2022-07-29T00:26:05;5.97;;;3.10;;
71148;SDS011;59072;42.144;25.200;2022-07-29T00:28:30;4.95;;;3.10;;
71148;SDS011;59072;42.144;25.200;2022-07-29T00:30:56;4.63;;;3.30;;
71148;SDS011;59072;42.144;25.200;2022-07-29T00:33:21;5.65;;;3.13;;
71148;SDS011;59072;42.144;25.200;2022-07-29T00:35:48;6.45;;;3.80;;
71148;SDS011;59072;42.144;25.200;2022-07-29T00:38:14;6.55;;;3.67;;
71148;SDS011;59072;42.144;25.200;2022-07-29T00:40:41;7.15;;;3.65;;
71148;SDS011;59072;42.144;25.200;2022-07-29T00:43:08;8.90;;;4.80;;
71148;SDS011;59072;42.144;25.200;2022-07-29T00:45:33;5.88;;;3.72;;
71148;SDS011;59072;42.144;25.200;2022-07-29T00:47:59;6.28;;;3.70;;
71148;SDS011;59072;42.144;25.200;2022-07-29T00:50:25;5.93;;;4.05;;
71148;SDS011;59072;42.144;25.200;2022-07-29T00:52:51;8.52;;;3.70;;
71148;SDS011;59072;42.144;25.200;2022-07-29T00:55:18;9.13;;;3.88;;
71148;SDS011;59072;42.144;25.200;2022-07-29T00:57:44;5.97;;;3.83;;
71148;SDS011;59072;42.144;25.200;2022-07-29T01:00:21;6.07;;;3.78;;
71148;SDS011;59072;42.144;25.200;2022-07-29T01:02:49;4.88;;;3.65;;
71148;SDS011;59072;42.144;25.200;2022-07-29T01:05:18;6.72;;;3.95;;
71148;SDS011;59072;42.144;25.200;2022-07-29T01:07:46;8.20;;;3.90;;
71148;SDS011;59072;42.144;25.200;2022-07-29T01:10:14;6.45;;;3.80;;
71148;SDS011;59072;42.144;25.200;2022-07-29T01:12:42;7.50;;;3.83;;
71148;SDS011;59072;42.144;25.200;2022-07-29T01:15:09;6.07;;;3.80;;
71148;SDS011;59072;42.144;25.200;2022-07-29T01:20:24;7.55;;;4.32;;
71148;SDS011;59072;42.144;25.200;2022-07-29T01:23:11;5.45;;;3.92;;
71148;SDS011;59072;42.144;25.200;2022-07-29T01:29:03;5.50;;;3.45;;
71148;SDS011;59072;42.144;25.200;2022-07-29T01:34:21;8.45;;;4.22;;
71148;SDS011;59072;42.144;25.200;2022-07-29T01:36:57;6.38;;;3.83;;
71148;SDS011;59072;42.144;25.200;2022-07-29T01:39:32;8.50;;;4.13;;
71148;SDS011;59072;42.144;25.200;2022-07-29T01:42:10;8.85;;;4.05;;
71148;SDS011;59072;42.144;25.200;2022-07-29T01:47:59;5.93;;;3.80;;
71148;SDS011;59072;42.144;25.200;2022-07-29T01:50:34;8.23;;;4.47;;
71148;SDS011;59072;42.144;25.200;2022-07-29T01:53:05;7.30;;;4.05;;
71148;SDS011;59072;42.144;25.200;2022-07-29T01:55:36;6.50;;;4.07;;
71148;SDS011;59072;42.144;25.200;2022-07-29T01:58:05;8.07;;;4.30;;
71148;SDS011;59072;42.144;25.200;2022-07-29T02:00:33;5.45;;;3.85;;
71148;SDS011;59072;42.144;25.200;2022-07-29T02:03:05;6.72;;;4.30;;
71148;SDS011;59072;42.144;25.200;2022-07-29T02:05:34;8.90;;;4.25;;
71148;SDS011;59072;42.144;25.200;2022-07-29T02:08:02;8.80;;;4.30;;
71148;SDS011;59072;42.144;25.200;2022-07-29T02:10:31;9.60;;;4.10;;
71148;SDS011;59072;42.144;25.200;2022-07-29T02:12:59;9.18;;;4.40;;
71148;SDS011;59072;42.144;25.200;2022-07-29T02:18:00;5.57;;;4.43;;
71148;SDS011;59072;42.144;25.200;2022-07-29T02:20:29;5.43;;;3.80;;
71148;SDS011;59072;42.144;25.200;2022-07-29T02:22:56;11.05;;;4.60;;
71148;SDS011;59072;42.144;25.200;2022-07-29T02:25:24;8.40;;;4.30;;
71148;SDS011;59072;42.144;25.200;2022-07-29T02:27:51;5.82;;;3.90;;
71148;SDS011;59072;42.144;25.200;2022-07-29T02:30:19;6.60;;;3.78;;
71148;SDS011;59072;42.144;25.200;2022-07-29T02:32:47;8.27;;;3.95;;
71148;SDS011;59072;42.144;25.200;2022-07-29T02:35:14;7.53;;;4.18;;
71148;SDS011;59072;42.144;25.200;2022-07-29T02:37:42;7.60;;;4.50;;
71148;SDS011;59072;42.144;25.200;2022-07-29T02:40:12;7.25;;;4.30;;
71148;SDS011;59072;42.144;25.200;2022-07-29T02:42:41;7.68;;;4.18;;
71148;SDS011;59072;42.144;25.200;2022-07-29T02:45:09;6.07;;;3.95;;
71148;SDS011;59072;42.144;25.200;2022-07-29T02:50:15;6.50;;;4.07;;
71148;SDS011;59072;42.144;25.200;2022-07-29T02:52:58;7.50;;;4.88;;
71148;SDS011;59072;42.144;25.200;2022-07-29T02:55:40;10.02;;;4.47;;
71148;SDS011;59072;42.144;25.200;2022-07-29T02:58:36;11.82;;;5.15;;
71148;SDS011;59072;42.144;25.200;2022-07-29T03:01:11;8.55;;;4.53;;
71148;SDS011;59072;42.144;25.200;2022-07-29T03:03:39;9.25;;;5.15;;
71148;SDS011;59072;42.144;25.200;2022-07-29T03:06:08;11.90;;;4.72;;
71148;SDS011;59072;42.144;25.200;2022-07-29T03:08:36;8.77;;;4.70;;
71148;SDS011;59072;42.144;25.200;2022-07-29T03:11:02;10.73;;;4.72;;
71148;SDS011;59072;42.144;25.200;2022-07-29T03:13:29;8.57;;;4.75;;
71148;SDS011;59072;42.144;25.200;2022-07-29T03:15:56;12.85;;;5.07;;
71148;SDS011;59072;42.144;25.200;2022-07-29T03:18:22;9.75;;;4.68;;
71148;SDS011;59072;42.144;25.200;2022-07-29T03:20:48;9.30;;;5.20;;
71148;SDS011;59072;42.144;25.200;2022-07-29T03:23:21;10.20;;;4.63;;
71148;SDS011;59072;42.144;25.200;2022-07-29T03:25:48;9.70;;;5.00;;
71148;SDS011;59072;42.144;25.200;2022-07-29T03:28:14;10.50;;;4.70;;
71148;SDS011;59072;42.144;25.200;2022-07-29T03:30:39;12.23;;;4.85;;
71148;SDS011;59072;42.144;25.200;2022-07-29T03:33:05;9.95;;;4.75;;
71148;SDS011;59072;42.144;25.200;2022-07-29T03:35:30;6.57;;;4.65;;
71148;SDS011;59072;42.144;25.200;2022-07-29T03:37:56;7.80;;;4.45;;
71148;SDS011;59072;42.144;25.200;2022-07-29T03:40:25;8.65;;;4.60;;
71148;SDS011;59072;42.144;25.200;2022-07-29T03:42:56;9.82;;;5.28;;
71148;SDS011;59072;42.144;25.200;2022-07-29T03:45:23;8.40;;;4.65;;
71148;SDS011;59072;42.144;25.200;2022-07-29T03:47:53;11.02;;;4.82;;
71148;SDS011;59072;42.144;25.200;2022-07-29T03:50:22;9.63;;;4.30;;
71148;SDS011;59072;42.144;25.200;2022-07-29T03:52:48;7.85;;;4.65;;
71148;SDS011;59072;42.144;25.200;2022-07-29T03:55:15;7.25;;;4.32;;
71148;SDS011;59072;42.144;25.200;2022-07-29T03:57:41;10.25;;;4.28;;
71148;SDS011;59072;42.144;25.200;2022-07-29T04:00:08;7.80;;;4.20;;
71148;SDS011;59072;42.144;25.200;2022-07-29T04:02:33;9.95;;;4.88;;
71148;SDS011;59072;42.144;25.200;2022-07-29T04:05:00;9.45;;;4.72;;
71148;SDS011;59072;42.144;25.200;2022-07-29T04:07:26;10.00;;;4.82;;
71148;SDS011;59072;42.144;25.200;2022-07-29T04:09:51;10.85;;;4.90;;
71148;SDS011;59072;42.144;25.200;2022-07-29T04:12:16;10.60;;;5.03;;
71148;SDS011;59072;42.144;25.200;2022-07-29T04:14:42;10.52;;;5.03;;
71148;SDS011;59072;42.144;25.200;2022-07-29T04:17:07;8.80;;;5.10;;
71148;SDS011;59072;42.144;25.200;2022-07-29T04:19:33;12.57;;;4.93;;
71148;SDS011;59072;42.144;25.200;2022-07-29T04:21:59;12.27;;;4.68;;
71148;SDS011;59072;42.144;25.200;2022-07-29T04:24:25;9.65;;;4.88;;
71148;SDS011;59072;42.144;25.200;2022-07-29T04:26:51;10.23;;;4.88;;
71148;SDS011;59072;42.144;25.200;2022-07-29T04:29:17;6.40;;;4.43;;
71148;SDS011;59072;42.144;25.200;2022-07-29T04:31:42;12.98;;;4.13;;
71148;SDS011;59072;42.144;25.200;2022-07-29T04:34:08;8.52;;;4.57;;
71148;SDS011;59072;42.144;25.200;2022-07-29T04:36:35;11.38;;;5.20;;
71148;SDS011;59072;42.144;25.200;2022-07-29T04:39:00;13.38;;;6.22;;
71148;SDS011;59072;42.144;25.200;2022-07-29T04:41:26;12.63;;;4.90;;
71148;SDS011;59072;42.144;25.200;2022-07-29T04:43:52;10.20;;;5.68;;
71148;SDS011;59072;42.144;25.200;2022-07-29T04:46:18;7.70;;;5.13;;
71148;SDS011;59072;42.144;25.200;2022-07-29T04:48:45;12.63;;;5.30;;
71148;SDS011;59072;42.144;25.200;2022-07-29T04:51:11;8.75;;;5.82;;
71148;SDS011;59072;42.144;25.200;2022-07-29T04:53:36;7.50;;;4.97;;
71148;SDS011;59072;42.144;25.200;2022-07-29T04:56:02;9.93;;;5.80;;
71148;SDS011;59072;42.144;25.200;2022-07-29T04:58:27;8.30;;;5.53;;
71148;SDS011;59072;42.144;25.200;2022-07-29T05:00:53;8.55;;;5.05;;
71148;SDS011;59072;42.144;25.200;2022-07-29T05:03:18;9.73;;;4.80;;
71148;SDS011;59072;42.144;25.200;2022-07-29T05:05:44;6.57;;;4.50;;
71148;SDS011;59072;42.144;25.200;2022-07-29T05:08:09;7.85;;;4.30;;
71148;SDS011;59072;42.144;25.200;2022-07-29T05:10:35;8.90;;;4.90;;
71148;SDS011;59072;42.144;25.200;2022-07-29T05:13:06;7.88;;;4.68;;
71148;SDS011;59072;42.144;25.200;2022-07-29T05:15:35;6.25;;;4.30;;
71148;SDS011;59072;42.144;25.200;2022-07-29T05:18:02;7.78;;;4.55;;
71148;SDS011;59072;42.144;25.200;2022-07-29T05:20:28;6.35;;;4.32;;
71148;SDS011;59072;42.144;25.200;2022-07-29T05:22:55;8.98;;;4.60;;
71148;SDS011;59072;42.144;25.200;2022-07-29T05:25:21;7.70;;;4.60;;
71148;SDS011;59072;42.144;25.200;2022-07-29T05:27:47;9.93;;;4.72;;
71148;SDS011;59072;42.144;25.200;2022-07-29T05:30:12;7.32;;;4.65;;
71148;SDS011;59072;42.144;25.200;2022-07-29T05:32:38;10.07;;;5.82;;
71148;SDS011;59072;42.144;25.200;2022-07-29T05:35:03;10.23;;;4.57;;
71148;SDS011;59072;42.144;25.200;2022-07-29T05:37:29;8.23;;;4.50;;
71148;SDS011;59072;42.144;25.200;2022-07-29T05:39:54;9.07;;;5.70;;
71148;SDS011;59072;42.144;25.200;2022-07-29T05:42:20;10.27;;;5.75;;
71148;SDS011;59072;42.144;25.200;2022-07-29T05:44:45;7.07;;;5.20;;
71148;SDS011;59072;42.144;25.200;2022-07-29T05:47:12;8.73;;;5.43;;
71148;SDS011;59072;42.144;25.200;2022-07-29T05:49:38;10.38;;;7.43;;
71148;SDS011;59072;42.144;25.200;2022-07-29T05:52:03;8.73;;;5.93;;
71148;SDS011;59072;42.144;25.200;2022-07-29T05:54:29;11.95;;;6.38;;
71148;SDS011;59072;42.144;25.200;2022-07-29T05:56:55;12.80;;;5.80;;
71148;SDS011;59072;42.144;25.200;2022-07-29T05:59:21;8.40;;;6.53;;
71148;SDS011;59072;42.144;25.200;2022-07-29T06:01:46;9.95;;;7.13;;
71148;SDS011;59072;42.144;25.200;2022-07-29T06:04:12;8.55;;;6.38;;
71148;SDS011;59072;42.144;25.200;2022-07-29T06:06:37;8.85;;;6.53;;
71148;SDS011;59072;42.144;25.200;2022-07-29T06:09:03;12.50;;;6.90;;
71148;SDS011;59072;42.144;25.200;2022-07-29T06:11:29;8.23;;;6.10;;
71148;SDS011;59072;42.144;25.200;2022-07-29T06:13:54;9.60;;;6.20;;
71148;SDS011;59072;42.144;25.200;2022-07-29T06:16:19;11.77;;;6.75;;
71148;SDS011;59072;42.144;25.200;2022-07-29T06:18:45;9.32;;;6.22;;
71148;SDS011;59072;42.144;25.200;2022-07-29T06:21:10;8.95;;;6.10;;
71148;SDS011;59072;42.144;25.200;2022-07-29T06:23:36;9.40;;;6.53;;
71148;SDS011;59072;42.144;25.200;2022-07-29T06:26:03;9.65;;;6.93;;
71148;SDS011;59072;42.144;25.200;2022-07-29T06:28:29;10.07;;;6.85;;
71148;SDS011;59072;42.144;25.200;2022-07-29T06:30:54;12.85;;;7.13;;
71148;SDS011;59072;42.144;25.200;2022-07-29T06:33:20;8.70;;;6.60;;
71148;SDS011;59072;42.144;25.200;2022-07-29T06:35:45;10.98;;;7.30;;
71148;SDS011;59072;42.144;25.200;2022-07-29T06:38:14;8.77;;;6.93;;
71148;SDS011;59072;42.144;25.200;2022-07-29T06:40:44;8.88;;;6.22;;
71148;SDS011;59072;42.144;25.200;2022-07-29T06:43:35;12.18;;;6.85;;
71148;SDS011;59072;42.144;25.200;2022-07-29T06:46:10;10.00;;;6.60;;
71148;SDS011;59072;42.144;25.200;2022-07-29T06:48:37;8.70;;;7.00;;
71148;SDS011;59072;42.144;25.200;2022-07-29T06:51:04;8.52;;;6.32;;
71148;SDS011;59072;42.144;25.200;2022-07-29T06:53:31;8.00;;;6.05;;
71148;SDS011;59072;42.144;25.200;2022-07-29T06:55:57;8.00;;;6.57;;
71148;SDS011;59072;42.144;25.200;2022-07-29T06:58:24;8.50;;;5.82;;
71148;SDS011;59072;42.144;25.200;2022-07-29T07:00:50;8.25;;;6.10;;
71148;SDS011;59072;42.144;25.200;2022-07-29T07:03:16;9.32;;;5.88;;
71148;SDS011;59072;42.144;25.200;2022-07-29T07:05:42;11.30;;;5.85;;
71148;SDS011;59072;42.144;25.200;2022-07-29T07:08:08;10.10;;;6.15;;
71148;SDS011;59072;42.144;25.200;2022-07-29T07:10:34;7.22;;;5.45;;
71148;SDS011;59072;42.144;25.200;2022-07-29T07:12:59;8.07;;;5.38;;
71148;SDS011;59072;42.144;25.200;2022-07-29T07:15:26;7.05;;;5.55;;
71148;SDS011;59072;42.144;25.200;2022-07-29T07:17:52;9.15;;;5.47;;
71148;SDS011;59072;42.144;25.200;2022-07-29T07:20:18;5.95;;;4.50;;
71148;SDS011;59072;42.144;25.200;2022-07-29T07:22:44;9.05;;;4.70;;
71148;SDS011;59072;42.144;25.200;2022-07-29T07:25:10;7.63;;;4.50;;
71148;SDS011;59072;42.144;25.200;2022-07-29T07:27:36;8.80;;;4.85;;
71148;SDS011;59072;42.144;25.200;2022-07-29T07:30:03;7.28;;;4.63;;
71148;SDS011;59072;42.144;25.200;2022-07-29T07:32:31;6.32;;;4.70;;
71148;SDS011;59072;42.144;25.200;2022-07-29T07:34:57;9.85;;;4.97;;
71148;SDS011;59072;42.144;25.200;2022-07-29T07:37:23;6.22;;;4.68;;
71148;SDS011;59072;42.144;25.200;2022-07-29T07:39:50;7.15;;;4.32;;
71148;SDS011;59072;42.144;25.200;2022-07-29T07:42:16;7.22;;;4.32;;
71148;SDS011;59072;42.144;25.200;2022-07-29T07:44:42;6.72;;;4.22;;
71148;SDS011;59072;42.144;25.200;2022-07-29T07:47:07;5.72;;;4.20;;
71148;SDS011;59072;42.144;25.200;2022-07-29T07:49:33;7.97;;;4.63;;
71148;SDS011;59072;42.144;25.200;2022-07-29T07:51:58;6.97;;;5.07;;
71148;SDS011;59072;42.144;25.200;2022-07-29T07:54:24;7.35;;;4.32;;
71148;SDS011;59072;42.144;25.200;2022-07-29T07:56:49;7.75;;;4.53;;
71148;SDS011;59072;42.144;25.200;2022-07-29T07:59:15;7.53;;;3.95;;
71148;SDS011;59072;42.144;25.200;2022-07-29T08:01:41;6.18;;;4.25;;
71148;SDS011;59072;42.144;25.200;2022-07-29T08:04:07;5.53;;;4.20;;
71148;SDS011;59072;42.144;25.200;2022-07-29T08:06:33;6.07;;;4.40;;
71148;SDS011;59072;42.144;25.200;2022-07-29T08:09:00;8.07;;;4.35;;
71148;SDS011;59072;42.144;25.200;2022-07-29T08:11:25;6.47;;;4.00;;
71148;SDS011;59072;42.144;25.200;2022-07-29T08:13:51;6.03;;;4.20;;
71148;SDS011;59072;42.144;25.200;2022-07-29T08:16:17;6.32;;;4.60;;
71148;SDS011;59072;42.144;25.200;2022-07-29T08:18:43;5.03;;;4.22;;
71148;SDS011;59072;42.144;25.200;2022-07-29T08:21:10;6.28;;;4.40;;
71148;SDS011;59072;42.144;25.200;2022-07-29T08:23:36;6.85;;;4.38;;
71148;SDS011;59072;42.144;25.200;2022-07-29T08:26:05;5.28;;;4.15;;
71148;SDS011;59072;42.144;25.200;2022-07-29T08:28:35;6.20;;;3.75;;
71148;SDS011;59072;42.144;25.200;2022-07-29T08:31:01;5.10;;;3.63;;
71148;SDS011;59072;42.144;25.200;2022-07-29T08:33:27;7.28;;;4.13;;
71148;SDS011;59072;42.144;25.200;2022-07-29T08:35:52;5.68;;;4.03;;
71148;SDS011;59072;42.144;25.200;2022-07-29T08:38:18;7.10;;;4.07;;
71148;SDS011;59072;42.144;25.200;2022-07-29T08:40:43;4.75;;;3.13;;
71148;SDS011;59072;42.144;25.200;2022-07-29T08:43:09;6.78;;;3.85;;
71148;SDS011;59072;42.144;25.200;2022-07-29T08:45:42;5.63;;;4.07;;
71148;SDS011;59072;42.144;25.200;2022-07-29T08:48:15;6.05;;;3.90;;
71148;SDS011;59072;42.144;25.200;2022-07-29T08:50:43;6.10;;;3.50;;
71148;SDS011;59072;42.144;25.200;2022-07-29T08:53:14;5.35;;;3.47;;
71148;SDS011;59072;42.144;25.200;2022-07-29T08:55:46;5.25;;;3.65;;
71148;SDS011;59072;42.144;25.200;2022-07-29T08:58:13;6.45;;;3.42;;
71148;SDS011;59072;42.144;25.200;2022-07-29T09:00:41;4.53;;;3.47;;
71148;SDS011;59072;42.144;25.200;2022-07-29T09:03:14;18.70;;;4.78;;
71148;SDS011;59072;42.144;25.200;2022-07-29T09:05:43;7.25;;;3.65;;
71148;SDS011;59072;42.144;25.200;2022-07-29T09:08:10;7.97;;;3.70;;
71148;SDS011;59072;42.144;25.200;2022-07-29T09:10:37;6.13;;;3.67;;
71148;SDS011;59072;42.144;25.200;2022-07-29T09:13:04;4.55;;;3.58;;
71148;SDS011;59072;42.144;25.200;2022-07-29T09:15:29;5.60;;;3.90;;
71148;SDS011;59072;42.144;25.200;2022-07-29T09:17:55;6.18;;;3.70;;
71148;SDS011;59072;42.144;25.200;2022-07-29T09:20:23;7.05;;;3.63;;
71148;SDS011;59072;42.144;25.200;2022-07-29T09:22:49;4.85;;;3.60;;
71148;SDS011;59072;42.144;25.200;2022-07-29T09:28:08;5.07;;;3.72;;
71148;SDS011;59072;42.144;25.200;2022-07-29T09:30:35;11.80;;;4.50;;
71148;SDS011;59072;42.144;25.200;2022-07-29T09:33:14;5.53;;;3.58;;
71148;SDS011;59072;42.144;25.200;2022-07-29T09:35:40;6.60;;;3.47;;
71148;SDS011;59072;42.144;25.200;2022-07-29T09:38:12;5.97;;;3.33;;
71148;SDS011;59072;42.144;25.200;2022-07-29T09:40:38;16.08;;;3.88;;
71148;SDS011;59072;42.144;25.200;2022-07-29T09:43:11;7.32;;;3.55;;
71148;SDS011;59072;42.144;25.200;2022-07-29T09:45:37;6.35;;;3.70;;
71148;SDS011;59072;42.144;25.200;2022-07-29T09:48:14;7.43;;;3.30;;
71148;SDS011;59072;42.144;25.200;2022-07-29T09:50:49;6.05;;;4.05;;
71148;SDS011;59072;42.144;25.200;2022-07-29T09:53:32;5.00;;;3.60;;
71148;SDS011;59072;42.144;25.200;2022-07-29T09:56:02;7.05;;;3.70;;
71148;SDS011;59072;42.144;25.200;2022-07-29T09:58:28;5.07;;;3.40;;
71148;SDS011;59072;42.144;25.200;2022-07-29T10:00:54;3.75;;;2.90;;
71148;SDS011;59072;42.144;25.200;2022-07-29T10:03:22;7.43;;;3.90;;
71148;SDS011;59072;42.144;25.200;2022-07-29T10:06:04;5.72;;;3.20;;
71148;SDS011;59072;42.144;25.200;2022-07-29T10:08:31;4.43;;;3.22;;
71148;SDS011;59072;42.144;25.200;2022-07-29T10:11:08;5.68;;;3.30;;
71148;SDS011;59072;42.144;25.200;2022-07-29T10:13:36;6.63;;;3.60;;
71148;SDS011;59072;42.144;25.200;2022-07-29T10:16:01;4.97;;;3.20;;
71148;SDS011;59072;42.144;25.200;2022-07-29T10:18:27;4.25;;;2.85;;
71148;SDS011;59072;42.144;25.200;2022-07-29T10:20:53;7.13;;;3.38;;
71148;SDS011;59072;42.144;25.200;2022-07-29T10:23:19;6.45;;;3.10;;
71148;SDS011;59072;42.144;25.200;2022-07-29T10:25:45;5.07;;;3.38;;
71148;SDS011;59072;42.144;25.200;2022-07-29T10:28:11;4.50;;;2.75;;
71148;SDS011;59072;42.144;25.200;2022-07-29T10:30:36;6.65;;;3.05;;
71148;SDS011;59072;42.144;25.200;2022-07-29T10:41:23;4.07;;;3.10;;
71148;SDS011;59072;42.144;25.200;2022-07-29T10:46:24;5.00;;;3.20;;
71148;SDS011;59072;42.144;25.200;2022-07-29T11:05:11;8.75;;;3.83;;
71148;SDS011;59072;42.144;25.200;2022-07-29T11:10:44;5.78;;;4.20;;
71148;SDS011;59072;42.144;25.200;2022-07-29T11:13:10;5.70;;;4.50;;
71148;SDS011;59072;42.144;25.200;2022-07-29T11:15:54;8.25;;;5.75;;
71148;SDS011;59072;42.144;25.200;2022-07-29T11:18:21;5.80;;;4.30;;
71148;SDS011;59072;42.144;25.200;2022-07-29T11:20:48;5.55;;;4.00;;
71148;SDS011;59072;42.144;25.200;2022-07-29T11:31:45;5.18;;;3.58;;
71148;SDS011;59072;42.144;25.200;2022-07-29T11:44:54;5.32;;;3.03;;
71148;SDS011;59072;42.144;25.200;2022-07-29T11:47:26;4.18;;;2.80;;
71148;SDS011;59072;42.144;25.200;2022-07-29T11:49:54;5.15;;;3.08;;
71148;SDS011;59072;42.144;25.200;2022-07-29T11:52:22;5.57;;;2.90;;
71148;SDS011;59072;42.144;25.200;2022-07-29T11:54:48;24.52;;;4.00;;
71148;SDS011;59072;42.144;25.200;2022-07-29T11:59:42;7.40;;;3.30;;
71148;SDS011;59072;42.144;25.200;2022-07-29T12:02:10;5.15;;;3.40;;
71148;SDS011;59072;42.144;25.200;2022-07-29T12:07:14;4.65;;;3.22;;
71148;SDS011;59072;42.144;25.200;2022-07-29T12:09:41;5.73;;;3.00;;
71148;SDS011;59072;42.144;25.200;2022-07-29T12:12:16;5.82;;;2.75;;
71148;SDS011;59072;42.144;25.200;2022-07-29T12:14:42;5.57;;;3.15;;
71148;SDS011;59072;42.144;25.200;2022-07-29T12:17:24;7.32;;;3.15;;
71148;SDS011;59072;42.144;25.200;2022-07-29T12:19:54;8.68;;;2.72;;
71148;SDS011;59072;42.144;25.200;2022-07-29T12:22:31;5.18;;;3.08;;
71148;SDS011;59072;42.144;25.200;2022-07-29T12:25:08;4.78;;;2.90;;
71148;SDS011;59072;42.144;25.200;2022-07-29T12:27:36;5.15;;;3.05;;
71148;SDS011;59072;42.144;25.200;2022-07-29T12:30:04;4.95;;;2.55;;
71148;SDS011;59072;42.144;25.200;2022-07-29T12:32:32;4.75;;;2.70;;
71148;SDS011;59072;42.144;25.200;2022-07-29T12:35:06;4.75;;;2.92;;
71148;SDS011;59072;42.144;25.200;2022-07-29T12:37:38;4.50;;;2.70;;
71148;SDS011;59072;42.144;25.200;2022-07-29T12:40:05;5.28;;;3.03;;
71148;SDS011;59072;42.144;25.200;2022-07-29T12:42:32;4.90;;;2.78;;
71148;SDS011;59072;42.144;25.200;2022-07-29T12:44:58;4.47;;;3.05;;
71148;SDS011;59072;42.144;25.200;2022-07-29T12:47:24;4.85;;;2.90;;
71148;SDS011;59072;42.144;25.200;2022-07-29T12:49:50;6.25;;;3.28;;
71148;SDS011;59072;42.144;25.200;2022-07-29T12:52:32;5.47;;;2.85;;
71148;SDS011;59072;42.144;25.200;2022-07-29T12:54:59;5.05;;;2.88;;
71148;SDS011;59072;42.144;25.200;2022-07-29T12:57:26;4.50;;;2.63;;
71148;SDS011;59072;42.144;25.200;2022-07-29T12:59:59;3.95;;;2.80;;
71148;SDS011;59072;42.144;25.200;2022-07-29T13:05:05;3.85;;;2.67;;
71148;SDS011;59072;42.144;25.200;2022-07-29T13:07:32;4.95;;;3.08;;
71148;SDS011;59072;42.144;25.200;2022-07-29T13:13:00;6.13;;;3.10;;
71148;SDS011;59072;42.144;25.200;2022-07-29T13:15:45;6.80;;;2.73;;
71148;SDS011;59072;42.144;25.200;2022-07-29T13:18:29;4.97;;;3.17;;
71148;SDS011;59072;42.144;25.200;2022-07-29T13:20:57;6.90;;;3.20;;
71148;SDS011;59072;42.144;25.200;2022-07-29T13:23:36;7.43;;;3.45;;
71148;SDS011;59072;42.144;25.200;2022-07-29T13:26:05;4.47;;;3.00;;
71148;SDS011;59072;42.144;25.200;2022-07-29T13:28:36;4.35;;;3.35;;
71148;SDS011;59072;42.144;25.200;2022-07-29T13:31:01;5.57;;;3.33;;
71148;SDS011;59072;42.144;25.200;2022-07-29T13:33:27;3.80;;;3.00;;
71148;SDS011;59072;42.144;25.200;2022-07-29T13:35:52;7.00;;;3.00;;
71148;SDS011;59072;42.144;25.200;2022-07-29T13:38:18;5.47;;;3.08;;
71148;SDS011;59072;42.144;25.200;2022-07-29T13:40:43;4.83;;;3.10;;
71148;SDS011;59072;42.144;25.200;2022-07-29T13:43:10;7.63;;;3.33;;
71148;SDS011;59072;42.144;25.200;2022-07-29T13:45:36;8.93;;;3.38;;
71148;SDS011;59072;42.144;25.200;2022-07-29T13:48:02;5.37;;;2.90;;
71148;SDS011;59072;42.144;25.200;2022-07-29T13:50:27;6.43;;;3.40;;
71148;SDS011;59072;42.144;25.200;2022-07-29T13:52:53;7.47;;;3.43;;
71148;SDS011;59072;42.144;25.200;2022-07-29T13:55:19;6.67;;;3.10;;
71148;SDS011;59072;42.144;25.200;2022-07-29T13:57:44;4.03;;;3.23;;
71148;SDS011;59072;42.144;25.200;2022-07-29T14:00:10;5.67;;;3.10;;
71148;SDS011;59072;42.144;25.200;2022-07-29T14:02:37;5.10;;;2.97;;
71148;SDS011;59072;42.144;25.200;2022-07-29T14:05:03;4.57;;;2.90;;
71148;SDS011;59072;42.144;25.200;2022-07-29T14:07:33;6.57;;;2.95;;
71148;SDS011;59072;42.144;25.200;2022-07-29T14:09:58;4.77;;;2.47;;
71148;SDS011;59072;42.144;25.200;2022-07-29T14:12:24;6.90;;;3.17;;
71148;SDS011;59072;42.144;25.200;2022-07-29T14:14:49;5.63;;;2.77;;
71148;SDS011;59072;42.144;25.200;2022-07-29T14:17:15;3.90;;;2.80;;
71148;SDS011;59072;42.144;25.200;2022-07-29T14:19:40;8.97;;;3.03;;
71148;SDS011;59072;42.144;25.200;2022-07-29T14:22:07;4.33;;;2.80;;
71148;SDS011;59072;42.144;25.200;2022-07-29T14:24:33;5.00;;;2.63;;
71148;SDS011;59072;42.144;25.200;2022-07-29T14:26:59;8.57;;;3.20;;
71148;SDS011;59072;42.144;25.200;2022-07-29T14:29:24;4.90;;;2.70;;
71148;SDS011;59072;42.144;25.200;2022-07-29T14:31:50;4.60;;;2.70;;
71148;SDS011;59072;42.144;25.200;2022-07-29T14:34:15;4.83;;;2.90;;
71148;SDS011;59072;42.144;25.200;2022-07-29T14:36:41;5.17;;;2.80;;
71148;SDS011;59072;42.144;25.200;2022-07-29T14:39:07;6.32;;;3.03;;
71148;SDS011;59072;42.144;25.200;2022-07-29T14:41:32;4.87;;;2.90;;
71148;SDS011;59072;42.144;25.200;2022-07-29T14:43:58;4.80;;;2.90;;
71148;SDS011;59072;42.144;25.200;2022-07-29T14:46:26;4.18;;;2.80;;
71148;SDS011;59072;42.144;25.200;2022-07-29T14:48:52;4.75;;;2.67;;
71148;SDS011;59072;42.144;25.200;2022-07-29T14:51:17;4.00;;;3.10;;
71148;SDS011;59072;42.144;25.200;2022-07-29T14:53:43;3.63;;;2.80;;
71148;SDS011;59072;42.144;25.200;2022-07-29T14:56:08;3.70;;;2.87;;
71148;SDS011;59072;42.144;25.200;2022-07-29T14:58:34;4.40;;;3.00;;
71148;SDS011;59072;42.144;25.200;2022-07-29T15:00:59;6.27;;;2.67;;
71148;SDS011;59072;42.144;25.200;2022-07-29T15:03:26;7.30;;;2.78;;
71148;SDS011;59072;42.144;25.200;2022-07-29T15:08:18;5.40;;;2.70;;
71148;SDS011;59072;42.144;25.200;2022-07-29T15:10:43;5.13;;;2.60;;
71148;SDS011;59072;42.144;25.200;2022-07-29T15:13:09;4.07;;;2.73;;
71148;SDS011;59072;42.144;25.200;2022-07-29T15:15:34;6.67;;;3.00;;
71148;SDS011;59072;42.144;25.200;2022-07-29T15:18:00;5.50;;;2.77;;
71148;SDS011;59072;42.144;25.200;2022-07-29T15:20:25;3.47;;;2.50;;
71148;SDS011;59072;42.144;25.200;2022-07-29T15:22:52;5.43;;;2.85;;
71148;SDS011;59072;42.144;25.200;2022-07-29T15:25:18;5.57;;;3.23;;
71148;SDS011;59072;42.144;25.200;2022-07-29T15:27:43;5.33;;;2.80;;
71148;SDS011;59072;42.144;25.200;2022-07-29T15:30:09;5.70;;;2.67;;
71148;SDS011;59072;42.144;25.200;2022-07-29T15:32:35;4.72;;;2.60;;
71148;SDS011;59072;42.144;25.200;2022-07-29T15:35:00;4.77;;;2.40;;
71148;SDS011;59072;42.144;25.200;2022-07-29T15:37:26;3.90;;;2.57;;
71148;SDS011;59072;42.144;25.200;2022-07-29T15:39:53;6.10;;;2.83;;
71148;SDS011;59072;42.144;25.200;2022-07-29T15:42:18;5.87;;;2.70;;
71148;SDS011;59072;42.144;25.200;2022-07-29T15:44:44;8.03;;;2.97;;
71148;SDS011;59072;42.144;25.200;2022-07-29T15:47:10;7.20;;;3.10;;
71148;SDS011;59072;42.144;25.200;2022-07-29T15:49:36;6.73;;;2.93;;
71148;SDS011;59072;42.144;25.200;2022-07-29T15:52:07;5.13;;;3.00;;
71148;SDS011;59072;42.144;25.200;2022-07-29T15:54:34;4.30;;;2.53;;
71148;SDS011;59072;42.144;25.200;2022-07-29T15:57:01;4.97;;;2.72;;
71148;SDS011;59072;42.144;25.200;2022-07-29T15:59:28;5.03;;;2.88;;